Time;durP1;ratioP1;P1;durP2;ratioP2;P2;SDS_P1;SDS_P2;PMS_P1;PMS_P2;Temp;Humidity;BMP_temperature;BMP_pressure;BME280_temperature;BME280_humidity;BME280_pressure;Samples;Min_cycle;Max_cycle;Signal;HPM_P1;HPM_P2
2022/01/11 00:01:28;;;;;;;14.10;8.50;;;;;;;-3.89;83.30;97710.66;107563;1271;45338;-74
2022/01/11 00:03:59;;;;;;;13.50;7.80;;;;;;;-3.90;83.31;97705.90;107494;1270;44007;-73
2022/01/11 00:06:41;;;;;;;17.10;8.10;;;;;;;-3.90;83.22;97713.16;107565;1271;31367;-74
2022/01/11 00:09:21;;;;;;;14.50;7.60;;;;;;;-3.88;83.34;97712.15;107611;1271;43341;-73
2022/01/11 00:11:52;;;;;;;18.00;8.80;;;;;;;-3.88;83.09;97712.66;107600;1268;39313;-73
2022/01/11 00:14:23;;;;;;;14.50;8.10;;;;;;;-3.91;82.83;97719.11;107596;1268;36951;-74
2022/01/11 00:16:54;;;;;;;13.30;6.90;;;;;;;-3.91;82.84;97719.70;107623;1271;29648;-74
2022/01/11 00:19:26;;;;;;;13.40;7.70;;;;;;;-3.91;82.91;97720.58;107521;1273;45424;-74
2022/01/11 00:21:58;;;;;;;14.30;8.00;;;;;;;-3.92;82.77;97723.71;107574;1268;41413;-73
2022/01/11 00:24:30;;;;;;;12.80;8.00;;;;;;;-3.91;82.78;97726.80;107725;1268;44431;-73
2022/01/11 00:27:03;;;;;;;15.70;8.50;;;;;;;-3.91;82.75;97725.04;107596;1271;49013;-74
2022/01/11 00:29:36;;;;;;;14.20;8.10;;;;;;;-3.91;82.69;97726.70;107516;1269;66700;-74
2022/01/11 00:32:14;;;;;;;12.10;6.80;;;;;;;-3.89;82.66;97731.42;107587;1271;41189;-73
2022/01/11 00:34:50;;;;;;;12.40;6.30;;;;;;;-3.92;82.65;97733.07;107607;1271;46883;-74
2022/01/11 00:37:22;;;;;;;11.70;7.30;;;;;;;-3.92;82.53;97734.11;107538;1269;45641;-74
2022/01/11 00:39:53;;;;;;;14.90;8.00;;;;;;;-3.92;82.53;97735.82;107541;1268;34644;-74
2022/01/11 00:42:24;;;;;;;11.90;6.70;;;;;;;-3.90;82.55;97737.02;107598;1271;34361;-73
2022/01/11 00:44:55;;;;;;;13.70;8.00;;;;;;;-3.91;82.49;97736.73;107610;1268;34064;-73
2022/01/11 00:47:26;;;;;;;12.10;7.60;;;;;;;-3.91;82.36;97739.67;107598;1269;34973;-73
2022/01/11 00:49:57;;;;;;;12.50;7.90;;;;;;;-3.90;82.47;97743.69;107537;1270;32813;-74
2022/01/11 00:52:28;;;;;;;12.40;7.50;;;;;;;-3.88;82.41;97746.80;107552;1270;37832;-73
2022/01/11 00:54:59;;;;;;;13.30;7.10;;;;;;;-3.88;82.52;97740.90;107442;1271;38935;-73
2022/01/11 00:57:30;;;;;;;14.80;7.60;;;;;;;-3.86;82.40;97742.30;107542;1271;36402;-73
2022/01/11 01:00:01;;;;;;;13.60;7.70;;;;;;;-3.83;82.50;97744.27;107556;1271;45625;-73
2022/01/11 01:02:32;;;;;;;14.80;8.00;;;;;;;-3.81;82.60;97745.77;107449;1270;40127;-73
2022/01/11 01:05:03;;;;;;;12.70;7.30;;;;;;;-3.82;82.29;97741.39;107587;1268;41501;-73
2022/01/11 01:07:34;;;;;;;14.40;7.60;;;;;;;-3.85;82.21;97740.70;107599;1268;42181;-73
2022/01/11 01:10:12;;;;;;;13.60;7.90;;;;;;;-3.86;82.11;97738.83;107584;1268;40250;-73
2022/01/11 01:12:43;;;;;;;11.60;8.00;;;;;;;-3.85;82.19;97740.45;107594;1268;39631;-74
2022/01/11 01:15:14;;;;;;;14.50;7.60;;;;;;;-3.83;82.21;97740.42;107573;1268;29467;-74
2022/01/11 01:17:45;;;;;;;14.90;7.70;;;;;;;-3.79;82.31;97741.38;107557;1268;42976;-74
2022/01/11 01:20:16;;;;;;;14.10;7.10;;;;;;;-3.75;82.36;97740.27;107540;1268;52231;-73
2022/01/11 01:22:50;;;;;;;13.20;7.70;;;;;;;-3.74;82.26;97741.51;107587;1268;42389;-74
2022/01/11 01:25:23;;;;;;;11.60;6.90;;;;;;;-3.72;82.26;97745.17;107567;1268;31906;-73
2022/01/11 01:27:55;;;;;;;14.70;7.70;;;;;;;-3.71;82.25;97741.22;107508;1271;32577;-73
2022/01/11 01:30:26;;;;;;;13.70;7.00;;;;;;;-3.71;82.06;97746.92;107520;1268;43753;-74
2022/01/11 01:32:57;;;;;;;13.40;6.50;;;;;;;-3.73;82.00;97742.26;107502;1268;50013;-73
2022/01/11 01:35:33;;;;;;;12.60;7.40;;;;;;;-3.75;81.97;97746.98;107590;1268;46458;-73
2022/01/11 01:38:04;;;;;;;14.10;7.30;;;;;;;-3.77;81.85;97747.80;107579;1268;48575;-73
2022/01/11 01:40:40;;;;;;;14.70;8.10;;;;;;;-3.79;81.87;97750.26;107577;1268;36279;-73
2022/01/11 01:43:12;;;;;;;13.20;7.60;;;;;;;-3.82;81.88;97747.86;107599;1268;48755;-73
2022/01/11 01:45:44;;;;;;;18.10;9.70;;;;;;;-3.81;81.86;97750.75;107638;1268;31921;-73
2022/01/11 01:48:16;;;;;;;14.00;7.90;;;;;;;-3.79;81.91;97751.27;107540;1268;44481;-74
2022/01/11 01:50:48;;;;;;;14.90;8.70;;;;;;;-3.77;81.98;97750.67;107472;1271;30754;-73
2022/01/11 01:53:20;;;;;;;15.80;8.50;;;;;;;-3.75;81.81;97751.55;107452;1271;39391;-73
2022/01/11 01:55:51;;;;;;;15.90;8.80;;;;;;;-3.76;81.77;97749.23;107591;1268;40343;-73
2022/01/11 01:58:23;;;;;;;13.70;8.40;;;;;;;-3.78;81.63;97753.05;107523;1268;48502;-74
2022/01/11 02:01:02;;;;;;;15.80;9.40;;;;;;;-3.81;81.38;97749.36;107559;1268;41432;-74
2022/01/11 02:03:38;;;;;;;17.20;9.10;;;;;;;-3.83;81.47;97753.02;107578;1268;42665;-73
2022/01/11 02:06:12;;;;;;;14.00;8.70;;;;;;;-3.82;81.50;97757.36;107627;1268;34477;-74
2022/01/11 02:08:44;;;;;;;15.50;8.60;;;;;;;-3.77;81.66;97756.25;107727;1268;46033;-73
2022/01/11 02:14:48;;;;;;;16.00;8.60;;;;;;;-3.69;81.75;97759.19;107540;1268;48287;-74
2022/01/11 02:17:18;;;;;;;14.70;8.20;;;;;;;-3.69;81.62;97759.19;107608;1268;38854;-74
2022/01/11 02:19:49;;;;;;;15.90;8.90;;;;;;;-3.70;81.67;97763.17;107506;1268;33765;-73
2022/01/11 02:22:20;;;;;;;18.60;10.40;;;;;;;-3.71;81.70;97765.54;107498;1271;45426;-74
2022/01/11 02:24:51;;;;;;;15.30;9.10;;;;;;;-3.71;81.70;97766.96;107525;1271;43039;-73
2022/01/11 02:27:22;;;;;;;16.40;9.70;;;;;;;-3.73;81.64;97770.27;107527;1271;36227;-74
2022/01/11 02:29:54;;;;;;;16.70;10.00;;;;;;;-3.73;81.67;97771.73;107342;1271;54301;-74
2022/01/11 02:32:25;;;;;;;15.50;9.20;;;;;;;-3.72;81.77;97772.08;107491;1271;34363;-74
2022/01/11 02:34:55;;;;;;;20.10;9.70;;;;;;;-3.70;81.82;97775.27;107502;1270;44254;-74
2022/01/11 02:37:26;;;;;;;16.10;8.80;;;;;;;-3.70;81.76;97776.48;107558;1268;42877;-73
2022/01/11 02:39:57;;;;;;;14.40;9.00;;;;;;;-3.71;81.78;97780.91;107505;1268;46922;-74
2022/01/11 02:42:28;;;;;;;14.30;8.70;;;;;;;-3.72;81.58;97782.29;107514;1268;46480;-74
2022/01/11 02:44:59;;;;;;;16.90;9.70;;;;;;;-3.72;81.71;97788.54;107570;1268;44630;-73
2022/01/11 02:47:30;;;;;;;19.90;10.80;;;;;;;-3.74;81.67;97788.05;107472;1268;41825;-74
2022/01/11 02:50:01;;;;;;;18.80;10.30;;;;;;;-3.75;81.69;97790.19;107570;1268;43632;-73
2022/01/11 02:52:32;;;;;;;19.20;10.50;;;;;;;-3.75;81.66;97787.77;107422;1271;42475;-73
2022/01/11 02:55:06;;;;;;;16.60;8.20;;;;;;;-3.73;81.75;97785.81;107669;1268;40784;-73
2022/01/11 02:57:38;;;;;;;16.50;8.90;;;;;;;-3.73;81.84;97785.89;107555;1268;44508;-74
2022/01/11 03:00:12;;;;;;;18.50;9.60;;;;;;;-3.73;81.78;97791.02;107641;1268;30550;-73
2022/01/11 03:02:44;;;;;;;15.70;8.90;;;;;;;-3.74;81.78;97790.21;107599;1268;43014;-73
2022/01/11 03:05:16;;;;;;;19.20;9.50;;;;;;;-3.74;81.84;97794.11;107494;1271;38343;-74
2022/01/11 03:07:50;;;;;;;16.40;9.30;;;;;;;-3.77;81.87;97796.12;107555;1268;33492;-74
2022/01/11 03:10:29;;;;;;;15.90;9.60;;;;;;;-3.78;81.80;97792.23;107588;1268;42462;-74
2022/01/11 03:13:01;;;;;;;16.20;10.20;;;;;;;-3.79;81.74;97795.84;107549;1268;34812;-73
2022/01/11 03:15:32;;;;;;;20.30;11.00;;;;;;;-3.80;81.85;97797.47;107420;1271;33733;-73
2022/01/11 03:18:04;;;;;;;16.80;9.70;;;;;;;-3.80;81.78;97795.68;107429;1270;41951;-74
2022/01/11 03:20:36;;;;;;;19.10;9.10;;;;;;;-3.76;82.00;97795.81;107610;1268;34016;-74
2022/01/11 03:23:08;;;;;;;16.00;9.40;;;;;;;-3.72;82.00;97796.98;107513;1268;41737;-73
2022/01/11 03:25:39;;;;;;;18.50;10.20;;;;;;;-3.72;81.96;97795.89;107644;1268;29980;-73
2022/01/11 03:28:10;;;;;;;20.70;10.60;;;;;;;-3.72;82.01;97802.01;107581;1268;34306;-73
2022/01/11 03:30:41;;;;;;;18.70;10.40;;;;;;;-3.74;81.85;97801.65;107597;1270;39767;-73
2022/01/11 03:33:12;;;;;;;18.90;9.90;;;;;;;-3.75;81.88;97802.98;107537;1271;41569;-73
2022/01/11 03:35:44;;;;;;;18.60;10.90;;;;;;;-3.75;81.94;97807.10;107502;1271;41467;-73
2022/01/11 03:38:16;;;;;;;14.50;9.10;;;;;;;-3.75;81.90;97805.77;107550;1268;40681;-74
2022/01/11 03:40:47;;;;;;;17.70;10.10;;;;;;;-3.74;82.02;97809.10;107511;1268;39005;-74
2022/01/11 03:43:21;;;;;;;18.40;10.10;;;;;;;-3.73;82.04;97815.16;107480;1268;41606;-74
2022/01/11 03:45:52;;;;;;;18.50;10.00;;;;;;;-3.72;82.08;97814.55;107470;1271;42176;-74
2022/01/11 03:48:24;;;;;;;18.30;9.50;;;;;;;-3.70;82.12;97819.73;107586;1268;41539;-74
2022/01/11 03:50:56;;;;;;;19.40;10.40;;;;;;;-3.71;82.07;97820.66;107533;1268;46670;-74
2022/01/11 03:53:32;;;;;;;17.00;9.80;;;;;;;-3.72;82.05;97821.45;107504;1268;33423;-74
2022/01/11 03:56:21;;;;;;;17.20;9.10;;;;;;;-3.72;82.17;97823.87;107576;1268;38254;-73
2022/01/11 03:58:54;;;;;;;16.40;10.80;;;;;;;-3.75;82.07;97827.30;107549;1270;34775;-73
2022/01/11 04:01:25;;;;;;;16.80;8.50;;;;;;;-3.77;82.02;97830.77;107540;1268;38448;-74
2022/01/11 04:03:56;;;;;;;21.90;10.20;;;;;;;-3.79;82.11;97830.18;107650;1268;38082;-73
2022/01/11 04:06:27;;;;;;;17.20;9.80;;;;;;;-3.81;82.07;97829.53;107518;1268;46024;-74
2022/01/11 04:08:58;;;;;;;15.90;9.20;;;;;;;-3.83;82.20;97831.45;107531;1271;39136;-73
2022/01/11 04:11:29;;;;;;;19.20;9.50;;;;;;;-3.84;82.10;97839.48;107483;1271;41822;-73
2022/01/11 04:14:00;;;;;;;16.30;9.30;;;;;;;-3.85;82.26;97841.67;107594;1268;37884;-73
2022/01/11 04:16:31;;;;;;;16.90;9.80;;;;;;;-3.86;82.25;97838.50;107474;1271;110976;-73
2022/01/11 04:19:01;;;;;;;14.20;8.50;;;;;;;-3.88;82.23;97832.84;107546;1268;31948;-73
2022/01/11 04:21:32;;;;;;;15.70;9.00;;;;;;;-3.89;82.34;97834.94;107316;1270;103292;-74
2022/01/11 04:24:03;;;;;;;16.70;8.60;;;;;;;-3.87;82.23;97842.25;107455;1268;113974;-73
2022/01/11 04:26:34;;;;;;;17.00;9.70;;;;;;;-3.87;82.42;97840.37;107615;1268;37416;-73
2022/01/11 04:29:05;;;;;;;16.90;9.80;;;;;;;-3.88;82.42;97847.34;107511;1268;34300;-73
2022/01/11 04:31:36;;;;;;;18.00;10.90;;;;;;;-3.89;82.43;97846.59;107440;1268;108705;-73
2022/01/11 04:34:06;;;;;;;15.70;9.20;;;;;;;-3.91;82.44;97853.91;107545;1268;39126;-73
2022/01/11 04:36:38;;;;;;;16.50;9.90;;;;;;;-3.93;82.46;97854.91;107612;1268;31828;-73
2022/01/11 04:39:11;;;;;;;19.50;10.00;;;;;;;-3.94;82.43;97857.74;107462;1268;107452;-73
2022/01/11 04:41:42;;;;;;;17.20;10.60;;;;;;;-3.95;82.40;97858.73;107670;1268;75357;-73
2022/01/11 04:44:13;;;;;;;16.00;9.60;;;;;;;-3.97;82.35;97860.98;107599;1270;39060;-73
2022/01/11 04:46:44;;;;;;;20.50;10.40;;;;;;;-3.98;82.43;97863.19;107585;1270;37222;-73
2022/01/11 04:49:15;;;;;;;17.40;10.20;;;;;;;-3.98;82.48;97864.26;107547;1268;37298;-74
2022/01/11 04:51:46;;;;;;;16.80;9.40;;;;;;;-3.97;82.57;97866.75;107500;1270;44184;-74
2022/01/11 04:54:17;;;;;;;17.80;9.90;;;;;;;-3.97;82.45;97871.41;107471;1270;45199;-74
2022/01/11 04:56:48;;;;;;;16.10;9.10;;;;;;;-3.98;82.49;97872.64;107518;1268;41530;-73
2022/01/11 04:59:19;;;;;;;17.50;10.10;;;;;;;-3.97;82.53;97871.39;107370;1268;111479;-74
2022/01/11 05:01:50;;;;;;;17.80;9.20;;;;;;;-3.97;82.68;97871.86;107467;1268;114652;-73
2022/01/11 05:04:21;;;;;;;17.40;9.70;;;;;;;-3.95;82.73;97872.42;107517;1268;80129;-74
2022/01/11 05:06:54;;;;;;;18.50;10.20;;;;;;;-3.96;82.64;97876.05;107471;1268;61709;-74
2022/01/11 05:09:25;;;;;;;16.00;9.50;;;;;;;-3.95;82.82;97877.05;107396;1268;112079;-74
2022/01/11 05:11:56;;;;;;;18.60;9.50;;;;;;;-3.96;82.64;97876.24;107612;1268;38359;-74
2022/01/11 05:14:27;;;;;;;14.90;9.40;;;;;;;-3.95;82.79;97879.05;107489;1268;117136;-74
2022/01/11 05:16:58;;;;;;;17.10;9.40;;;;;;;-3.96;82.65;97876.63;107571;1268;43401;-74
2022/01/11 05:19:28;;;;;;;20.00;10.70;;;;;;;-4.01;82.64;97877.30;107561;1268;43233;-73
2022/01/11 05:21:59;;;;;;;16.20;9.40;;;;;;;-4.02;82.60;97882.64;107394;1270;123315;-74
2022/01/11 05:24:30;;;;;;;16.10;9.80;;;;;;;-4.03;82.53;97889.05;107414;1268;79296;-73
2022/01/11 05:27:01;;;;;;;15.60;9.10;;;;;;;-4.04;82.20;97889.85;107515;1268;95347;-74
2022/01/11 05:29:32;;;;;;;15.90;9.70;;;;;;;-4.05;82.23;97893.83;107501;1268;64375;-73
2022/01/11 05:32:03;;;;;;;16.80;10.10;;;;;;;-4.06;82.00;97896.19;107507;1269;75608;-73
2022/01/11 05:34:34;;;;;;;20.40;10.80;;;;;;;-4.10;81.87;97895.82;107566;1268;46051;-74
2022/01/11 05:37:05;;;;;;;17.90;10.50;;;;;;;-4.13;81.70;97899.11;107597;1267;68830;-73
2022/01/11 05:39:37;;;;;;;19.00;11.10;;;;;;;-4.17;81.70;97907.64;107537;1270;36936;-73
2022/01/11 05:42:09;;;;;;;16.10;9.70;;;;;;;-4.20;81.57;97910.93;107478;1268;46286;-73
2022/01/11 05:44:40;;;;;;;17.80;10.00;;;;;;;-4.19;81.67;97909.00;107672;1268;39201;-73
2022/01/11 05:47:11;;;;;;;23.60;10.90;;;;;;;-4.21;81.45;97915.20;107577;1268;44650;-73
2022/01/11 05:49:42;;;;;;;19.10;11.70;;;;;;;-4.20;81.49;97916.67;107625;1268;81978;-73
2022/01/11 05:52:12;;;;;;;21.10;12.20;;;;;;;-4.23;81.52;97921.77;107580;1268;33768;-73
2022/01/11 05:54:43;;;;;;;16.60;10.30;;;;;;;-4.24;81.45;97926.20;105721;1268;2606273;-73
2022/01/11 05:57:15;;;;;;;18.00;11.10;;;;;;;-4.25;81.30;97925.09;107543;1268;41278;-74
2022/01/11 05:59:46;;;;;;;16.30;10.30;;;;;;;-4.25;81.46;97926.13;107494;1270;34578;-74
2022/01/11 06:02:16;;;;;;;16.80;8.80;;;;;;;-4.25;81.43;97930.92;107538;1271;35626;-74
2022/01/11 06:04:47;;;;;;;22.90;11.70;;;;;;;-4.27;81.39;97932.17;107482;1270;32395;-73
2022/01/11 06:07:18;;;;;;;20.70;11.50;;;;;;;-4.29;81.26;97934.52;107487;1270;45806;-74
2022/01/11 06:09:49;;;;;;;19.50;11.40;;;;;;;-4.33;81.14;97939.39;107510;1268;46816;-74
2022/01/11 06:12:20;;;;;;;19.50;11.10;;;;;;;-4.35;81.35;97946.48;107647;1268;44266;-74
2022/01/11 06:14:51;;;;;;;16.00;10.90;;;;;;;-4.35;81.24;97948.90;107668;1268;30757;-74
2022/01/11 06:17:22;;;;;;;17.90;10.50;;;;;;;-4.34;81.13;97956.27;107594;1268;35507;-73
2022/01/11 06:19:53;;;;;;;17.60;9.50;;;;;;;-4.35;81.38;97962.59;107536;1270;30153;-73
2022/01/11 06:22:25;;;;;;;19.10;10.60;;;;;;;-4.36;81.24;97964.52;107528;1268;43319;-74
2022/01/11 06:24:56;;;;;;;20.50;12.10;;;;;;;-4.37;81.16;97969.85;107531;1268;45070;-73
2022/01/11 06:27:27;;;;;;;17.50;11.50;;;;;;;-4.40;81.23;97978.67;107527;1268;48412;-73
2022/01/11 06:29:58;;;;;;;17.00;10.80;;;;;;;-4.39;81.22;97981.42;107556;1268;41758;-74
2022/01/11 06:32:29;;;;;;;17.30;10.00;;;;;;;-4.38;81.28;97987.80;107531;1268;48628;-73
2022/01/11 06:35:00;;;;;;;16.70;10.10;;;;;;;-4.38;81.24;97988.55;107524;1268;46715;-73
2022/01/11 06:37:31;;;;;;;18.40;11.00;;;;;;;-4.39;81.30;97995.51;107529;1271;40896;-74
2022/01/11 06:40:03;;;;;;;22.00;10.10;;;;;;;-4.38;81.24;97995.98;107530;1270;40132;-73
2022/01/11 06:42:34;;;;;;;18.20;10.60;;;;;;;-4.39;81.24;97999.64;107440;1270;44835;-74
2022/01/11 06:45:06;;;;;;;20.60;10.80;;;;;;;-4.40;81.19;98002.91;107429;1270;34291;-73
2022/01/11 06:47:36;;;;;;;19.10;9.90;;;;;;;-4.41;81.16;98009.14;107532;1270;42881;-73
2022/01/11 06:50:09;;;;;;;17.00;9.60;;;;;;;-4.40;81.13;98013.80;107439;1270;40825;-74
2022/01/11 06:52:41;;;;;;;17.50;9.50;;;;;;;-4.40;81.04;98017.89;107499;1270;34099;-73
2022/01/11 06:55:14;;;;;;;13.30;8.60;;;;;;;-4.39;81.10;98022.10;107629;1268;43641;-73
2022/01/11 06:57:46;;;;;;;18.30;10.00;;;;;;;-4.38;80.86;98027.89;107543;1270;33858;-73
2022/01/11 07:00:19;;;;;;;15.80;9.10;;;;;;;-4.38;80.87;98030.99;107499;1268;51623;-74
2022/01/11 07:02:50;;;;;;;18.20;9.50;;;;;;;-4.41;80.66;98034.92;107443;1270;41150;-74
2022/01/11 07:05:21;;;;;;;16.90;9.60;;;;;;;-4.42;80.57;98039.35;107538;1268;39257;-73
2022/01/11 07:07:52;;;;;;;16.80;8.70;;;;;;;-4.41;80.53;98040.14;107578;1269;43812;-73
2022/01/11 07:10:23;;;;;;;14.50;8.80;;;;;;;-4.40;80.37;98038.30;107543;1268;54408;-74
2022/01/11 07:12:55;;;;;;;20.70;10.00;;;;;;;-4.41;80.45;98040.91;107618;1268;33549;-74
2022/01/11 07:15:28;;;;;;;30.50;16.20;;;;;;;-4.41;80.44;98044.79;107561;1270;43138;-73
2022/01/11 07:18:04;;;;;;;21.80;13.20;;;;;;;-4.42;80.53;98051.27;107546;1270;44668;-73
2022/01/11 07:20:37;;;;;;;20.80;13.00;;;;;;;-4.43;80.34;98052.02;107567;1270;31047;-73
2022/01/11 07:23:08;;;;;;;19.80;11.40;;;;;;;-4.43;80.42;98053.09;107477;1270;42476;-73
2022/01/11 07:25:40;;;;;;;21.80;11.60;;;;;;;-4.44;80.32;98051.05;107599;1268;46874;-73
2022/01/11 07:28:14;;;;;;;19.00;10.00;;;;;;;-4.44;80.35;98056.10;107571;1268;153034;-74
2022/01/11 07:30:45;;;;;;;16.70;10.00;;;;;;;-4.40;80.41;98060.30;107603;1268;36037;-73
2022/01/11 07:33:16;;;;;;;15.90;9.50;;;;;;;-4.37;80.54;98068.13;107552;1268;45128;-74
2022/01/11 07:35:47;;;;;;;16.00;9.70;;;;;;;-4.34;80.50;98072.58;107588;1268;46814;-74
2022/01/11 07:38:18;;;;;;;17.60;9.30;;;;;;;-4.32;80.52;98071.45;107527;1268;44758;-74
2022/01/11 07:40:49;;;;;;;17.50;9.20;;;;;;;-4.30;80.53;98073.66;107592;1268;41585;-74
2022/01/11 07:43:20;;;;;;;18.40;10.40;;;;;;;-4.30;80.37;98076.29;107580;1268;43520;-74
2022/01/11 07:45:51;;;;;;;17.70;8.70;;;;;;;-4.26;80.56;98076.38;107567;1268;40763;-74
2022/01/11 07:48:21;;;;;;;14.80;8.40;;;;;;;-4.23;80.50;98077.64;107535;1268;42280;-73
2022/01/11 07:50:52;;;;;;;14.70;8.50;;;;;;;-4.23;80.35;98079.92;107596;1268;33223;-74
2022/01/11 07:53:23;;;;;;;18.80;9.90;;;;;;;-4.23;80.40;98075.73;107510;1268;48996;-74
2022/01/11 07:55:54;;;;;;;17.20;9.10;;;;;;;-4.20;80.34;98082.54;107573;1268;32951;-73
2022/01/11 07:58:25;;;;;;;17.10;9.80;;;;;;;-4.20;80.29;98082.38;107556;1268;43425;-73
2022/01/11 08:00:57;;;;;;;16.10;9.20;;;;;;;-4.20;80.27;98084.31;107613;1268;40677;-73
2022/01/11 08:03:28;;;;;;;16.00;9.20;;;;;;;-4.18;80.23;98083.94;107557;1268;39026;-73
2022/01/11 08:05:59;;;;;;;16.30;8.70;;;;;;;-4.19;80.08;98084.67;107577;1268;44727;-74
2022/01/11 08:08:29;;;;;;;15.10;7.90;;;;;;;-4.20;80.01;98083.63;107561;1270;31803;-73
2022/01/11 08:11:02;;;;;;;15.90;8.40;;;;;;;-4.19;79.91;98084.71;107632;1268;42302;-73
2022/01/11 08:13:33;;;;;;;16.40;7.90;;;;;;;-4.10;80.29;98088.68;107609;1268;38281;-73
2022/01/11 08:16:05;;;;;;;15.20;7.70;;;;;;;-4.01;80.24;98088.34;107444;1270;44120;-73
2022/01/11 08:18:36;;;;;;;15.70;8.20;;;;;;;-3.94;80.28;98088.66;107584;1268;42129;-73
2022/01/11 08:21:08;;;;;;;21.10;10.20;;;;;;;-3.91;80.14;98095.40;107546;1268;48130;-74
2022/01/11 08:23:39;;;;;;;23.30;12.50;;;;;;;-3.86;80.18;98094.80;107587;1268;46165;-73
2022/01/11 08:26:10;;;;;;;18.10;9.60;;;;;;;-3.81;80.08;98093.07;107632;1268;48519;-73
2022/01/11 08:28:43;;;;;;;25.70;12.10;;;;;;;-3.80;79.81;98094.20;107698;1268;40299;-73
2022/01/11 08:31:14;;;;;;;13.90;9.00;;;;;;;-3.78;79.78;98097.64;107601;1268;47202;-73
2022/01/11 08:33:46;;;;;;;15.90;9.10;;;;;;;-3.73;79.77;98098.38;107544;1268;40335;-74
2022/01/11 08:36:17;;;;;;;17.30;9.20;;;;;;;-3.69;79.71;98101.21;107630;1267;40971;-73
2022/01/11 08:38:48;;;;;;;22.70;11.10;;;;;;;-3.65;79.76;98102.20;107567;1270;39008;-73
2022/01/11 08:41:22;;;;;;;18.00;9.40;;;;;;;-3.62;79.72;98100.33;107484;1270;45631;-73
2022/01/11 08:43:53;;;;;;;30.30;16.30;;;;;;;-3.60;79.46;98105.16;107468;1270;33038;-74
2022/01/11 08:46:24;;;;;;;61.10;29.40;;;;;;;-3.57;79.36;98103.85;107548;1270;31635;-73
2022/01/11 08:48:55;;;;;;;35.00;18.00;;;;;;;-3.51;79.38;98100.98;107553;1270;33774;-74
2022/01/11 08:51:26;;;;;;;26.50;15.40;;;;;;;-3.44;79.45;98104.10;107598;1268;31044;-74
2022/01/11 08:53:57;;;;;;;21.30;11.70;;;;;;;-3.34;79.36;98106.40;107579;1268;42948;-73
2022/01/11 08:56:28;;;;;;;18.80;11.20;;;;;;;-3.29;79.17;98105.31;107553;1269;32891;-73
2022/01/11 08:58:59;;;;;;;19.20;9.90;;;;;;;-3.24;79.04;98109.50;107552;1270;31971;-74
2022/01/11 09:01:31;;;;;;;20.60;11.00;;;;;;;-3.21;79.00;98108.65;107399;1270;48651;-73
2022/01/11 09:04:03;;;;;;;19.50;10.80;;;;;;;-3.16;78.86;98108.04;107561;1271;35655;-73
2022/01/11 09:06:33;;;;;;;18.70;9.80;;;;;;;-3.20;78.73;98102.20;107584;1268;41588;-73
2022/01/11 09:09:04;;;;;;;14.60;8.30;;;;;;;-3.19;78.59;98096.36;107593;1268;31363;-74
2022/01/11 09:11:35;;;;;;;21.70;10.90;;;;;;;-3.17;78.53;98097.05;107575;1268;41787;-73
2022/01/11 09:14:06;;;;;;;18.90;10.80;;;;;;;-3.09;78.74;98098.16;107552;1268;44273;-73
2022/01/11 09:16:38;;;;;;;18.80;9.20;;;;;;;-2.99;78.75;98104.23;107568;1268;46282;-73
2022/01/11 09:19:08;;;;;;;15.80;9.10;;;;;;;-2.92;78.42;98101.26;107525;1268;46921;-73
2022/01/11 09:21:39;;;;;;;17.90;9.60;;;;;;;-2.88;78.39;98099.45;107609;1268;41883;-73
2022/01/11 09:24:11;;;;;;;133.30;47.20;;;;;;;-2.89;78.06;98094.71;107677;1268;38968;-73
2022/01/11 09:26:42;;;;;;;36.10;21.50;;;;;;;-2.75;78.38;98099.95;107660;1268;33470;-73
2022/01/11 09:29:13;;;;;;;23.50;13.40;;;;;;;-2.61;78.34;98098.18;107458;1270;38077;-73
2022/01/11 09:31:45;;;;;;;17.40;9.80;;;;;;;-2.50;78.15;98099.70;107654;1269;34361;-73
2022/01/11 09:34:15;;;;;;;17.20;9.10;;;;;;;-2.43;77.97;98093.92;107469;1270;39901;-74
2022/01/11 09:36:47;;;;;;;15.10;7.30;;;;;;;-2.44;77.66;98094.64;107620;1270;28707;-73
2022/01/11 09:39:19;;;;;;;16.10;7.20;;;;;;;-2.42;77.58;98100.35;107566;1270;31742;-74
2022/01/11 09:41:50;;;;;;;15.40;7.80;;;;;;;-2.37;77.52;98100.65;107549;1270;29444;-74
2022/01/11 09:44:21;;;;;;;13.00;6.80;;;;;;;-2.42;77.35;98106.59;107490;1268;42001;-73
2022/01/11 09:46:52;;;;;;;26.30;12.70;;;;;;;-2.45;77.22;98108.53;107594;1270;41402;-73
2022/01/11 09:49:24;;;;;;;18.50;11.00;;;;;;;-2.42;77.14;98111.42;107558;1270;43943;-73
2022/01/11 09:51:55;;;;;;;21.30;13.10;;;;;;;-2.43;77.04;98105.97;107578;1268;41484;-73
2022/01/11 09:54:26;;;;;;;15.10;8.90;;;;;;;-2.44;77.06;98106.98;107445;1268;44347;-73
2022/01/11 09:56:57;;;;;;;13.00;7.20;;;;;;;-2.48;77.02;98101.36;107549;1269;42535;-73
2022/01/11 09:59:28;;;;;;;11.50;6.70;;;;;;;-2.51;77.03;98102.17;107670;1268;37938;-72
2022/01/11 10:02:00;;;;;;;13.10;7.80;;;;;;;-2.54;76.77;98103.57;107610;1268;42201;-73
2022/01/11 10:04:34;;;;;;;13.90;9.20;;;;;;;-2.56;76.89;98104.44;107674;1268;42531;-73
2022/01/11 10:07:07;;;;;;;11.90;6.90;;;;;;;-2.58;76.94;98098.77;107787;1268;40476;-73
2022/01/11 10:09:48;;;;;;;15.00;7.30;;;;;;;-2.66;76.50;98099.55;107498;1270;42391;-73
2022/01/11 10:12:22;;;;;;;10.70;6.20;;;;;;;-2.75;76.70;98098.91;107646;1268;33174;-74
2022/01/11 10:18:38;;;;;;;13.10;6.60;;;;;;;-2.74;76.49;98096.80;107574;1267;39316;-73
2022/01/11 10:21:33;;;;;;;12.80;6.90;;;;;;;-2.80;76.37;98098.60;107644;1268;45052;-73
2022/01/11 10:24:23;;;;;;;13.80;7.70;;;;;;;-2.84;76.01;98095.92;107556;1268;45701;-73
2022/01/11 10:26:56;;;;;;;18.00;8.70;;;;;;;-2.79;76.71;98094.39;107569;1267;44026;-74
2022/01/11 10:29:31;;;;;;;12.00;7.30;;;;;;;-2.65;76.80;98099.89;107540;1268;41472;-73
2022/01/11 10:32:11;;;;;;;15.30;7.50;;;;;;;-2.54;76.87;98100.89;107593;1268;39807;-73
2022/01/11 10:34:43;;;;;;;12.50;7.10;;;;;;;-2.49;76.28;98100.39;107705;1268;30573;-73
2022/01/11 10:37:15;;;;;;;12.00;6.50;;;;;;;-2.51;76.12;98104.44;107650;1268;38671;-73
2022/01/11 10:39:47;;;;;;;11.90;6.10;;;;;;;-2.53;75.89;98105.32;107584;1268;39571;-74
2022/01/11 10:42:33;;;;;;;10.80;5.60;;;;;;;-2.50;75.92;98106.06;107593;1268;36876;-73
2022/01/11 10:45:07;;;;;;;11.00;6.30;;;;;;;-2.60;75.46;98106.39;107629;1267;39361;-73
2022/01/11 10:47:40;;;;;;;9.60;5.60;;;;;;;-2.62;75.48;98109.02;107565;1268;38125;-73
2022/01/11 10:50:15;;;;;;;11.30;6.00;;;;;;;-2.51;75.93;98112.95;107750;1268;34888;-73
2022/01/11 10:52:46;;;;;;;9.60;6.30;;;;;;;-2.58;75.46;98108.64;107612;1268;39753;-74
2022/01/11 10:55:19;;;;;;;13.00;6.10;;;;;;;-2.62;75.52;98109.80;107576;1268;33466;-73
2022/01/11 10:57:56;;;;;;;12.90;6.70;;;;;;;-2.61;75.78;98107.39;107592;1267;42139;-73
2022/01/11 11:00:30;;;;;;;58.00;24.30;;;;;;;-2.61;75.60;98105.87;107492;1270;31659;-73
2022/01/11 11:03:05;;;;;;;57.70;26.80;;;;;;;-2.60;75.57;98109.30;107539;1270;43471;-73
2022/01/11 11:05:41;;;;;;;36.10;16.80;;;;;;;-2.60;75.58;98109.37;107598;1268;51847;-73
2022/01/11 11:08:14;;;;;;;20.60;10.80;;;;;;;-2.59;75.57;98111.67;107688;1270;29587;-73
2022/01/11 11:10:54;;;;;;;15.20;8.90;;;;;;;-2.53;75.51;98116.24;107622;1268;45766;-72
2022/01/11 11:13:28;;;;;;;10.30;6.50;;;;;;;-2.56;75.31;98116.01;107528;1270;53992;-73
2022/01/11 11:16:12;;;;;;;14.90;7.30;;;;;;;-2.62;75.47;98117.52;107545;1269;42896;-73
2022/01/11 11:18:44;;;;;;;11.20;6.80;;;;;;;-2.63;75.66;98115.56;107645;1268;53585;-73
2022/01/11 11:21:22;;;;;;;9.20;6.10;;;;;;;-2.64;75.47;98117.96;107657;1268;39819;-73
2022/01/11 11:23:55;;;;;;;12.80;6.80;;;;;;;-2.60;75.52;98115.77;107572;1267;39824;-73
2022/01/11 11:26:30;;;;;;;10.40;6.10;;;;;;;-2.54;75.38;98116.14;107526;1268;45242;-73
2022/01/11 11:29:00;;;;;;;10.10;6.20;;;;;;;-2.54;75.18;98113.57;107540;1268;40344;-73
2022/01/11 11:31:34;;;;;;;13.60;7.00;;;;;;;-2.47;75.34;98115.28;107560;1269;46191;-73
2022/01/11 11:34:08;;;;;;;11.10;5.90;;;;;;;-2.43;75.19;98117.39;107568;1267;36708;-73
2022/01/11 11:36:41;;;;;;;12.10;6.20;;;;;;;-2.38;75.29;98117.14;107539;1270;35536;-73
2022/01/11 11:42:59;;;;;;;12.00;6.00;;;;;;;-2.19;75.16;98111.38;107478;1268;49173;-73
2022/01/11 11:45:33;;;;;;;16.40;6.80;;;;;;;-2.12;74.91;98112.36;107564;1269;32912;-73
2022/01/11 11:48:12;;;;;;;11.10;6.40;;;;;;;-2.15;74.28;98106.60;107583;1270;43430;-72